createdAt,value
2022-12-16T00:02:11.351Z,69.80
2022-12-16T00:07:13.641Z,70.10
2022-12-16T00:12:15.886Z,70.20
2022-12-16T00:17:18.087Z,70.30
2022-12-16T00:22:20.355Z,70.40
2022-12-16T00:27:22.556Z,70.70
2022-12-16T00:32:24.886Z,70.20
2022-12-16T00:37:28.298Z,70.50
2022-12-16T00:42:30.629Z,70.80
2022-12-16T00:47:32.786Z,70.80
2022-12-16T00:52:35.063Z,71.60
2022-12-16T00:57:37.296Z,71.10
2022-12-16T01:02:42.053Z,71.40
2022-12-16T01:07:44.735Z,71.90
2022-12-16T01:12:46.989Z,72.40
2022-12-16T01:17:49.670Z,73.00
2022-12-16T01:22:51.872Z,73.30
2022-12-16T01:27:54.526Z,73.70
2022-12-16T01:32:57.489Z,73.90
2022-12-16T01:37:59.665Z,74.20
2022-12-16T01:43:01.965Z,74.30
2022-12-16T01:53:26.067Z,75.40
2022-12-16T01:58:33.922Z,75.90
2022-12-16T02:03:37.655Z,76.10
2022-12-16T02:08:40.143Z,77.10
2022-12-16T02:14:11.859Z,77.80
2022-12-16T02:40:28.739Z,78.70
2022-12-16T02:45:32.487Z,79.50
2022-12-16T02:50:43.692Z,79.70
2022-12-16T03:06:19.973Z,79.80
2022-12-16T03:11:23.847Z,79.40
2022-12-16T03:16:32.544Z,79.20
2022-12-16T03:21:42.119Z,79.40
2022-12-16T03:31:59.766Z,79.70
2022-12-16T03:37:07.684Z,82.00
2022-12-16T03:42:11.701Z,82.80
2022-12-16T03:47:18.288Z,83.00
2022-12-16T03:52:23.889Z,82.80
2022-12-16T03:57:26.126Z,83.90
2022-12-16T04:02:28.426Z,83.70
2022-12-16T04:07:31.190Z,84.00
2022-12-16T04:12:53.410Z,84.40
2022-12-16T04:18:15.600Z,84.30
2022-12-16T04:23:38.605Z,84.40
2022-12-16T04:28:41.122Z,84.40
2022-12-16T04:34:03.338Z,84.00
2022-12-16T04:39:25.426Z,84.00
2022-12-16T04:44:47.536Z,83.80
2022-12-16T04:50:09.737Z,84.00
2022-12-16T04:55:32.220Z,84.40
2022-12-16T05:00:54.370Z,84.10
2022-12-16T05:06:17.889Z,84.40
2022-12-16T05:11:40.063Z,84.50
2022-12-16T05:17:02.396Z,84.30
2022-12-16T05:22:24.522Z,84.30
2022-12-16T05:27:46.753Z,84.30
2022-12-16T05:33:09.449Z,84.40
2022-12-16T05:38:31.715Z,84.30
2022-12-16T05:43:53.988Z,84.00
2022-12-16T05:49:17.265Z,84.20
2022-12-16T05:54:39.372Z,84.10
2022-12-16T06:00:01.513Z,84.20
2022-12-16T06:05:43.025Z,84.10
2022-12-16T06:11:05.229Z,84.60
2022-12-16T06:16:27.813Z,84.50
2022-12-16T06:21:49.998Z,84.60
2022-12-16T06:27:12.182Z,84.80
2022-12-16T06:32:34.272Z,84.90
2022-12-16T06:37:56.548Z,84.90
2022-12-16T06:43:18.666Z,84.70
2022-12-16T06:48:40.860Z,84.80
2022-12-16T06:54:03.391Z,84.90
2022-12-16T06:59:26.260Z,85.00
2022-12-16T07:04:49.086Z,84.70
2022-12-16T07:10:12.076Z,84.50
2022-12-16T07:15:34.477Z,84.70
2022-12-16T07:20:56.878Z,85.00
2022-12-16T07:26:19.169Z,85.30
2022-12-16T07:31:41.469Z,85.20
2022-12-16T07:37:03.616Z,85.00
2022-12-16T07:42:26.046Z,84.90
2022-12-16T07:47:48.313Z,84.90
2022-12-16T07:53:19.386Z,84.90
2022-12-16T07:58:41.520Z,85.00
2022-12-16T08:04:03.783Z,84.50
2022-12-16T08:09:26.124Z,84.60
2022-12-16T08:14:48.278Z,84.80
2022-12-16T08:20:10.446Z,84.30
2022-12-16T08:25:32.616Z,84.30
2022-12-16T08:30:54.840Z,83.90
2022-12-16T08:36:19.257Z,84.20
2022-12-16T08:41:41.418Z,83.80
2022-12-16T08:47:03.737Z,83.80
2022-12-16T08:52:26.160Z,83.90
2022-12-16T08:57:48.298Z,84.30
2022-12-16T09:15:27.502Z,83.80
2022-12-16T09:20:50.425Z,85.00
2022-12-16T09:26:12.612Z,83.90
2022-12-16T09:31:34.872Z,84.50
2022-12-16T09:36:57.003Z,83.50
2022-12-16T09:52:49.761Z,84.30
2022-12-16T09:58:12.413Z,84.00
2022-12-16T10:03:42.535Z,83.60
2022-12-16T10:09:31.543Z,83.90
2022-12-16T10:15:02.795Z,84.80
2022-12-16T10:20:37.858Z,84.40
2022-12-16T10:26:10.393Z,84.10
2022-12-16T10:31:36.821Z,83.70
2022-12-16T10:36:59.500Z,84.10
2022-12-16T10:42:23.261Z,84.90
2022-12-16T10:47:45.418Z,84.50
2022-12-16T10:53:33.956Z,84.30
2022-12-16T10:59:15.612Z,83.30
2022-12-16T11:04:56.917Z,83.50
2022-12-16T11:10:22.944Z,83.50
2022-12-16T11:15:49.697Z,84.10
2022-12-16T11:21:34.052Z,84.00
2022-12-16T11:26:56.156Z,84.40
2022-12-16T11:32:23.916Z,84.70
2022-12-16T11:37:49.462Z,85.20
2022-12-16T11:43:16.795Z,84.70
2022-12-16T11:48:56.360Z,85.10
2022-12-16T11:54:28.111Z,84.70
2022-12-16T12:00:00.099Z,84.50
2022-12-16T12:05:22.314Z,84.80
2022-12-16T12:26:33.967Z,85.70
2022-12-16T12:42:51.646Z,84.30
2022-12-16T12:48:25.013Z,84.70
2022-12-16T12:59:00.912Z,84.10
2022-12-16T13:04:32.153Z,83.60
2022-12-16T13:09:56.392Z,83.50
2022-12-16T13:26:11.944Z,83.50
2022-12-16T13:31:34.872Z,83.30
2022-12-16T13:36:57.752Z,82.90
2022-12-16T13:42:20.791Z,81.40
2022-12-16T13:47:54.759Z,82.30
2022-12-16T13:53:20.079Z,82.10
2022-12-16T13:59:05.721Z,81.90
2022-12-16T14:04:31.312Z,81.70
2022-12-16T14:09:57.145Z,81.60
2022-12-16T14:15:30.149Z,81.40
2022-12-16T14:21:01.743Z,81.60
2022-12-16T14:26:24.989Z,81.70
2022-12-16T14:37:00.601Z,81.40
2022-12-16T14:42:22.792Z,81.10
2022-12-16T14:47:46.980Z,81.20
2022-12-16T14:53:09.094Z,81.20
2022-12-16T14:58:33.693Z,81.20
2022-12-16T15:04:01.433Z,81.30
2022-12-16T15:09:25.621Z,81.10
2022-12-16T15:14:53.129Z,81.50
2022-12-16T15:20:15.798Z,81.60
2022-12-16T15:25:44.169Z,81.60
2022-12-16T15:31:07.580Z,81.50
2022-12-16T15:36:49.951Z,81.50
2022-12-16T15:42:12.102Z,82.10
2022-12-16T15:47:44.052Z,81.10
2022-12-16T15:53:06.294Z,81.00
2022-12-16T16:03:52.909Z,81.20
2022-12-16T16:09:14.992Z,81.20
2022-12-16T16:14:37.191Z,80.90
2022-12-16T16:20:03.531Z,81.00
2022-12-16T16:25:26.966Z,81.60
2022-12-16T16:30:49.453Z,80.80
2022-12-16T16:36:11.615Z,80.70
2022-12-16T16:41:36.092Z,80.70
2022-12-16T16:47:00.820Z,80.80
2022-12-16T16:52:23.351Z,80.70
2022-12-16T16:57:48.096Z,81.30
2022-12-16T17:03:10.452Z,80.70
2022-12-16T17:08:32.747Z,80.60
2022-12-16T17:13:54.818Z,80.50
2022-12-16T17:19:17.051Z,80.70
2022-12-16T17:24:43.356Z,80.50
2022-12-16T17:30:09.204Z,80.30
2022-12-16T17:35:32.192Z,80.20
2022-12-16T17:40:54.397Z,80.10
2022-12-16T17:46:26.677Z,80.10
2022-12-16T17:51:48.940Z,80.20
2022-12-16T17:57:11.050Z,80.10
2022-12-16T18:02:33.513Z,80.30
2022-12-16T18:07:55.864Z,80.50
2022-12-16T18:13:17.992Z,80.40
2022-12-16T18:18:45.925Z,80.60
2022-12-16T18:24:08.377Z,80.50
2022-12-16T18:29:30.542Z,81.10
2022-12-16T18:34:52.718Z,80.60
2022-12-16T18:40:14.875Z,80.50
2022-12-16T18:45:37.092Z,80.50
2022-12-16T18:50:59.468Z,80.60
2022-12-16T18:56:25.211Z,80.70
2022-12-16T19:01:47.428Z,80.80
2022-12-16T19:07:09.565Z,80.90
2022-12-16T19:12:31.967Z,81.00
2022-12-16T19:17:54.248Z,81.00
2022-12-16T19:23:17.105Z,81.10
2022-12-16T19:28:39.560Z,81.00
2022-12-16T19:34:03.453Z,81.10
2022-12-16T19:39:26.246Z,80.90
2022-12-16T19:44:48.400Z,80.80
2022-12-16T19:50:11.161Z,80.60
2022-12-16T19:55:33.336Z,80.50
2022-12-16T20:00:55.510Z,80.70
2022-12-16T20:06:20.942Z,80.70
2022-12-16T20:11:43.089Z,80.80
2022-12-16T20:17:05.326Z,81.00
2022-12-16T20:22:27.491Z,80.90
2022-12-16T20:27:49.632Z,80.80
2022-12-16T20:33:11.756Z,80.80
2022-12-16T20:38:33.876Z,80.50
2022-12-16T20:43:56.040Z,80.60
2022-12-16T20:49:18.473Z,80.50
2022-12-16T20:54:40.631Z,80.30
2022-12-16T21:00:02.821Z,80.80
2022-12-16T21:05:25.528Z,80.20
2022-12-16T21:10:47.665Z,80.40
2022-12-16T21:16:09.776Z,80.80
2022-12-16T21:21:32.120Z,80.40
2022-12-16T21:26:56.272Z,80.60
2022-12-16T21:32:18.710Z,80.50
2022-12-16T21:37:40.904Z,80.40
2022-12-16T21:43:03.040Z,80.50
2022-12-16T21:48:25.267Z,80.50
2022-12-16T21:53:47.962Z,80.40
2022-12-16T21:59:10.520Z,80.40
2022-12-16T22:04:32.827Z,80.50
2022-12-16T22:09:56.338Z,80.80
2022-12-16T22:15:18.454Z,80.50
2022-12-16T22:20:40.639Z,80.80
2022-12-16T22:26:02.772Z,80.70
2022-12-16T22:31:24.976Z,80.70
2022-12-16T22:36:47.141Z,80.50
2022-12-16T22:42:09.334Z,80.50
2022-12-16T22:47:31.933Z,80.50
2022-12-16T22:52:54.204Z,80.60
2022-12-16T22:58:16.309Z,80.70
2022-12-16T23:03:38.991Z,80.50
2022-12-16T23:09:01.437Z,80.70
2022-12-16T23:14:23.781Z,80.60
2022-12-16T23:19:45.921Z,80.90
2022-12-16T23:25:08.047Z,80.70
2022-12-16T23:30:31.121Z,80.90
2022-12-16T23:35:53.237Z,80.80
2022-12-16T23:41:19.035Z,80.60
2022-12-16T23:46:41.206Z,80.40
2022-12-16T23:52:03.374Z,80.30
2022-12-16T23:57:25.516Z,80.20
